createdAt,value
2022-10-28T00:01:17.651Z,16.463116389195147
2022-10-28T00:04:16.222Z,16.33914854982868
2022-10-28T00:07:16.139Z,16.41622697925777
2022-10-28T00:11:18.146Z,16.4085191333681
2022-10-28T00:14:16.478Z,16.415584658741956
2022-10-28T00:17:16.250Z,16.405307531107336
2022-10-28T00:21:18.673Z,16.48559762173245
2022-10-28T00:24:16.796Z,16.464401030904355
2022-10-28T00:27:17.279Z,16.454766218528675
2022-10-28T00:31:19.315Z,16.479174411867643
2022-10-28T00:34:18.955Z,16.45348157695589
2022-10-28T00:37:18.289Z,16.484955300725506
2022-10-28T00:41:19.999Z,16.452196935401297
2022-10-28T00:44:55.343Z,16.469539597923085
2022-10-28T00:47:27.512Z,16.46375871004748
2022-10-28T00:51:22.015Z,16.48559762173245
2022-10-28T00:54:17.921Z,16.399526647324457
2022-10-28T00:57:23.463Z,16.422007864104764
2022-10-28T01:01:15.828Z,16.405307531107336
2022-10-28T01:04:16.449Z,16.411730735742548
2022-10-28T01:07:16.811Z,16.362914391920004
2022-10-28T01:11:45.210Z,16.37576079564251
2022-10-28T01:14:24.307Z,16.223531028466823
2022-10-28T01:17:29.796Z,16.231238858640427
2022-10-28T01:21:42.612Z,16.262712505312173
2022-10-28T01:24:35.032Z,16.262070185883204
2022-10-28T01:31:27.880Z,16.175999423532993
2022-10-28T01:34:27.330Z,16.130394798964062
2022-10-28T01:37:26.858Z,16.144525806942784
2022-10-28T01:41:26.275Z,16.15351826771157
2022-10-28T01:44:25.538Z,16.104059744513144
2022-10-28T01:47:21.502Z,16.069374562510347
2022-10-28T01:51:22.244Z,16.12332929580007
2022-10-28T01:54:21.225Z,16.060382110081626
2022-10-28T01:57:18.045Z,16.101490471317447
2022-10-28T02:01:18.240Z,16.122044658920277
2022-10-28T02:04:17.131Z,16.103417426207397
2022-10-28T02:07:16.838Z,16.090571061047466
2022-10-28T02:11:30.025Z,16.13232175446792
2022-10-28T02:14:29.457Z,15.99293874527657
2022-10-28T02:17:25.437Z,16.010923637655743
2022-10-28T02:21:28.498Z,15.938984089530368
2022-10-28T02:24:21.707Z,15.876037031714167
2022-10-28T02:27:24.767Z,15.852271317161286
2022-10-28T02:31:23.460Z,15.875394715022775
2022-10-28T02:34:20.767Z,15.87025618165535
2022-10-28T02:37:22.951Z,15.796389796660605
2022-10-28T02:41:21.030Z,15.860621432375865
2022-10-28T02:44:19.554Z,15.782258842905957
2022-10-28T02:47:20.774Z,15.742435257802663
2022-10-28T02:51:20.874Z,15.760420100523424
2022-10-28T02:54:20.454Z,15.766843259502002
2022-10-28T02:57:22.015Z,15.708392529556658
2022-10-28T03:01:17.207Z,15.651868782568272
2022-10-28T03:04:17.499Z,15.60112590333747
2022-10-28T03:07:17.880Z,15.522121223813155
2022-10-28T03:11:15.682Z,15.547813794971443
2022-10-28T03:14:16.438Z,15.442474299461173
2022-10-28T03:17:16.408Z,15.428343400831
2022-10-28T03:21:16.128Z,15.411000937338486
2022-10-28T03:24:16.614Z,15.321077105722452
2022-10-28T03:27:18.096Z,15.30758853866755
2022-10-28T03:31:17.478Z,15.261984350619695
2022-10-28T03:34:16.674Z,15.270976723913282
2022-10-28T03:37:16.970Z,15.164352926517404
2022-10-28T03:41:15.768Z,15.278042160697805
2022-10-28T03:44:16.941Z,15.217022497521338
2022-10-28T03:47:16.046Z,15.182337654641833
2022-10-28T03:51:17.131Z,15.213810937438392
2022-10-28T03:54:17.308Z,15.185549213610647
2022-10-28T03:57:16.622Z,15.177199160528199
2022-10-28T04:01:15.798Z,15.203533945936943
2022-10-28T04:04:16.533Z,15.095625605457462
2022-10-28T04:07:15.851Z,15.082137071921988
2022-10-28T04:11:16.208Z,15.146368201958193
2022-10-28T04:14:16.181Z,15.028182957834451
2022-10-28T04:17:16.688Z,15.04680996978568
2022-10-28T04:21:16.088Z,15.014694434326156
2022-10-28T04:24:16.239Z,15.016621366133132
2022-10-28T04:27:16.210Z,15.008271328598493
2022-10-28T04:31:17.556Z,15.053875389112454
2022-10-28T04:34:17.793Z,15.031394511346297
2022-10-28T04:37:20.550Z,14.963951911471758
2022-10-28T04:41:16.588Z,15.027540647145724
2022-10-28T04:44:17.369Z,14.96973270378221
2022-10-28T04:47:17.196Z,14.924770995520884
2022-10-28T04:51:15.531Z,15.005702086434757
2022-10-28T04:54:16.947Z,14.924128685564302
2022-10-28T04:57:15.998Z,14.95431725843955
2022-10-28T05:01:16.499Z,14.924128685564302
2022-10-28T05:04:17.015Z,14.893297812996115
2022-10-28T05:07:18.761Z,14.871459284599496
2022-10-28T05:11:15.894Z,14.865678498550915
2022-10-28T05:14:16.424Z,14.830993789994682
2022-10-28T05:17:16.252Z,14.771901354106376
2022-10-28T05:21:16.319Z,14.86182464138983
2022-10-28T05:24:16.500Z,14.771901354106376
2022-10-28T05:27:16.516Z,14.725655126781202
2022-10-28T05:31:16.106Z,14.745566693989621
2022-10-28T05:34:16.508Z,14.77447058964899
2022-10-28T05:37:16.485Z,14.746209002682008
2022-10-28T05:41:16.527Z,14.766762883239426
2022-10-28T05:44:17.050Z,14.734005138304292
2022-10-28T05:47:17.559Z,14.773828280756515
2022-10-28T05:51:16.078Z,14.7911706224495
2022-10-28T05:54:16.471Z,14.744924385301783
2022-10-28T05:57:16.873Z,14.723728201154245
2022-10-28T06:01:18.520Z,14.778324443099336
2022-10-28T06:04:17.852Z,14.7301512867366
2022-10-28T06:07:17.472Z,14.71216664825197
2022-10-28T06:11:14.786Z,14.77447058964899
2022-10-28T06:14:15.384Z,14.725655126781202
2022-10-28T06:17:15.449Z,14.747493620080423
2022-10-28T06:21:15.233Z,14.79309754950891
2022-10-28T06:24:14.989Z,14.78089367882385
2022-10-28T06:27:14.957Z,14.775112898546013
2022-10-28T06:31:14.569Z,14.78410522358181
2022-10-28T06:34:14.996Z,14.742997459265553
2022-10-28T06:37:14.653Z,14.737858990035694
2022-10-28T06:41:14.754Z,14.775112898546013
2022-10-28T06:44:15.276Z,14.777039825264364
2022-10-28T06:47:16.874Z,14.795024476609251
2022-10-28T06:51:17.167Z,14.85989771287068
2022-10-28T06:54:16.680Z,14.82585531578079
2022-10-28T06:57:17.016Z,14.833563027210767
2022-10-28T07:01:16.548Z,14.912567107123413
2022-10-28T07:04:16.715Z,14.949178777240741
2022-10-28T07:07:16.728Z,15.008271328598493
2022-10-28T07:11:16.692Z,15.104617962261909
2022-10-28T07:14:16.968Z,15.139302775428224
2022-10-28T07:17:16.844Z,15.191330020041004
2022-10-28T07:21:15.835Z,15.280611410574057
2022-10-28T07:24:15.962Z,15.350623497707511
2022-10-28T07:27:16.265Z,15.416781758134311
2022-10-28T07:31:15.833Z,15.5131288256267
2022-10-28T07:34:16.449Z,15.61654145858347
2022-10-28T07:37:16.102Z,15.743077573552728
2022-10-28T07:41:21.007Z,15.885671782630743
2022-10-28T07:44:20.669Z,15.959538240316851
2022-10-28T07:47:22.870Z,16.06808992639453
2022-10-28T07:51:16.199Z,16.177926380005466
2022-10-28T07:54:16.166Z,16.330156070660813
2022-10-28T07:57:16.969Z,16.409161453833896
2022-10-28T08:01:19.087Z,16.540194923943726
2022-10-28T08:04:16.238Z,16.689855932593126
2022-10-28T08:07:17.229Z,16.802262431906364
2022-10-28T08:11:17.669Z,16.93201182141065
2022-10-28T08:14:16.501Z,17.046345595660476
2022-10-28T08:17:16.450Z,17.16646044627414
2022-10-28T08:21:17.237Z,17.282079169260395
2022-10-28T08:24:17.085Z,17.39898269452715
2022-10-28T08:27:17.211Z,17.515886370424415
2022-10-28T08:31:35.825Z,17.670045294199372
2022-10-28T08:34:18.935Z,17.795941942920035
2022-10-28T08:37:19.033Z,17.91670011706301
2022-10-28T08:41:27.717Z,18.036173787949156
2022-10-28T08:44:41.099Z,18.181340933103638
2022-10-28T08:47:27.576Z,18.30916529304095
2022-10-28T08:51:22.741Z,18.49608465615638
2022-10-28T08:54:20.901Z,18.663091972991605
2022-10-28T08:57:24.622Z,18.79734038516772
2022-10-28T09:01:29.510Z,19.01830471143048
2022-10-28T09:04:26.647Z,19.162831088017263
2022-10-28T09:07:20.530Z,19.31185408183519
2022-10-28T09:11:35.936Z,19.62852875638864
2022-10-28T09:14:29.507Z,19.774983137867913
2022-10-28T09:17:19.406Z,19.961263175169826
2022-10-28T09:21:46.974Z,20.250319162620237
2022-10-28T09:24:19.766Z,20.41604501075499
2022-10-28T09:27:28.390Z,20.59911461347365
2022-10-28T09:31:24.670Z,20.8425656398148
2022-10-28T09:34:28.329Z,21.015358453267254
2022-10-28T09:37:20.588Z,21.231189344171433
2022-10-28T09:41:22.161Z,21.46436436574013
2022-10-28T09:44:20.712Z,21.641654865789405
2022-10-28T09:47:21.265Z,21.85812960548792
2022-10-28T09:51:28.159Z,22.13498677594698
2022-10-28T09:54:16.551Z,22.32062929607928
2022-10-28T09:57:17.428Z,22.523616015761217
2022-10-28T10:01:17.934Z,22.804329411114395
2022-10-28T10:04:19.820Z,23.020164557362385
2022-10-28T10:07:26.866Z,23.194246254698374
2022-10-28T10:11:41.950Z,23.474961724736296
2022-10-28T10:14:25.907Z,23.675381539037424
2022-10-28T10:17:23.811Z,23.8346899123354
2022-10-28T10:21:16.951Z,24.06465975094334
2022-10-28T10:24:22.114Z,24.239385828004835
2022-10-28T10:27:19.834Z,24.461648162220172
2022-10-28T10:31:19.097Z,24.708963827195475
2022-10-28T10:34:22.950Z,24.861850211770797
2022-10-28T10:37:19.910Z,25.000604464441132
2022-10-28T10:41:32.742Z,25.197173352245954
2022-10-28T10:44:30.727Z,25.364835387151196
2022-10-28T10:47:19.240Z,25.538279197521568
2022-10-28T10:51:25.341Z,25.72135913478305
2022-10-28T10:54:16.868Z,25.932704504123194
2022-10-28T10:57:20.059Z,26.112573291279205
2022-10-28T11:01:20.693Z,26.30207829200117
2022-10-28T11:04:21.027Z,26.423490178422163
2022-10-28T11:07:16.766Z,26.58280337633487
2022-10-28T11:11:20.592Z,26.740189673099668
2022-10-28T11:14:22.557Z,26.88729792790118
2022-10-28T11:17:24.282Z,26.986869152728467
2022-10-28T11:21:33.972Z,27.187939120445755
2022-10-28T11:24:33.544Z,27.29714663785135
2022-10-28T11:27:30.778Z,27.428838230692783
2022-10-28T11:31:33.413Z,27.577232400896264
2022-10-28T11:34:31.640Z,27.680658784235128
2022-10-28T11:37:29.264Z,27.840616590593072
2022-10-28T11:41:24.292Z,27.96267293770734
2022-10-28T11:44:31.345Z,28.080875030329572
2022-10-28T11:47:32.521Z,28.14896978401748
2022-10-28T11:51:29.219Z,28.23890632945995
2022-10-28T11:54:31.141Z,28.400149930507176
2022-10-28T11:57:23.108Z,28.498438003163848
2022-10-28T12:01:34.808Z,28.5684602897938
2022-10-28T12:04:30.374Z,28.700796135004204
2022-10-28T12:11:26.217Z,28.852404427860165
2022-10-28T12:14:22.689Z,28.879385591272513
2022-10-28T12:17:25.277Z,28.941699261238774
2022-10-28T12:21:25.944Z,28.9590443110068
2022-10-28T12:24:20.546Z,29.01686116750934
2022-10-28T12:27:21.343Z,29.01686116750934
2022-10-28T12:31:22.195Z,29.0187883966938
2022-10-28T12:34:25.147Z,29.00208574512153
2022-10-28T12:37:23.106Z,29.075320470979296
2022-10-28T12:41:20.393Z,29.076605291258694
2022-10-28T12:44:19.687Z,29.1896695470773
2022-10-28T12:47:21.114Z,29.205729822113426
2022-10-28T12:51:20.604Z,29.20894187746171
2022-10-28T12:54:24.596Z,29.25134101871381
2022-10-28T12:57:21.053Z,29.295025003146385
2022-10-28T13:01:20.650Z,29.27896471230779
2022-10-28T13:04:17.554Z,29.289885709768804
2022-10-28T13:07:38.158Z,29.352199661601116
2022-10-28T13:12:15.138Z,29.30144912027763
2022-10-28T13:14:33.652Z,29.38496268436584
2022-10-28T13:17:32.379Z,29.341278656641315
2022-10-28T13:21:27.477Z,29.318794238803456
2022-10-28T13:24:23.572Z,29.3265031814346
2022-10-28T13:27:19.323Z,29.328430417194703
2022-10-28T13:31:17.139Z,29.27511024292944
2022-10-28T13:34:45.968Z,29.348345189112298
2022-10-28T13:37:20.183Z,29.305303590774656
2022-10-28T13:41:34.670Z,29.297594649944312
2022-10-28T13:44:47.132Z,29.308515649647234
2022-10-28T13:47:28.888Z,29.271255773714802
2022-10-28T13:51:50.323Z,29.232711090572412
2022-10-28T13:54:26.996Z,29.185172670576502
2022-10-28T13:57:24.870Z,29.238492792000123
2022-10-28T14:02:01.366Z,29.105513752354092
2022-10-28T14:04:24.658Z,29.12478606486693
2022-10-28T14:07:25.269Z,29.103586521327905
2022-10-28T14:11:23.618Z,29.073393240594307
2022-10-28T14:14:16.829Z,29.047054429434592
2022-10-28T14:17:21.060Z,29.03677587105567
2022-10-28T14:21:16.035Z,28.937844806184966
2022-10-28T14:24:32.655Z,28.990522372756914
2022-10-28T14:27:19.794Z,28.940414442869315
2022-10-28T14:31:40.215Z,28.794587676131414
2022-10-28T14:34:51.603Z,28.78302433020581
2022-10-28T14:41:34.038Z,28.63270096725064
2022-10-28T14:44:33.844Z,28.583235641582085
2022-10-28T14:47:38.995Z,28.522849436404886
2022-10-28T14:51:19.421Z,28.41942209322624
2022-10-28T14:54:28.777Z,28.30635879703368
2022-10-28T14:57:18.689Z,28.257536053588048
2022-10-28T15:01:22.519Z,28.129055275294014
2022-10-28T15:04:17.357Z,28.052609298522384
2022-10-28T15:07:19.437Z,27.974878581447776
2022-10-28T15:11:16.481Z,27.847040604769518
2022-10-28T15:14:25.616Z,27.70699719882332
2022-10-28T15:17:18.670Z,27.59393479022483
2022-10-28T15:21:18.569Z,27.514919667836875
2022-10-28T15:24:17.105Z,27.332478509855356
2022-10-28T15:27:17.441Z,27.24125806840748
2022-10-28T15:31:16.737Z,26.990723524918213
2022-10-28T15:34:20.291Z,26.78387244875921
2022-10-28T15:37:20.560Z,26.678519907966255
2022-10-28T15:41:39.825Z,26.519206542015308
2022-10-28T15:44:26.978Z,26.314283712392445
2022-10-28T15:47:24.151Z,25.94812181476673
2022-10-28T15:51:18.414Z,25.87488961253848
2022-10-28T15:54:19.622Z,25.632709855878783
2022-10-28T15:57:22.790Z,25.47661024918716
2022-10-28T16:01:28.961Z,25.397596970381347
2022-10-28T16:04:43.112Z,25.22865010912583
2022-10-28T16:07:17.342Z,25.117517934632268
2022-10-28T16:11:18.804Z,24.975551597568938
2022-10-28T16:14:31.735Z,24.82651930169386
2022-10-28T16:17:18.027Z,24.66271253471241
2022-10-28T16:21:18.684Z,24.41539699579307
2022-10-28T16:24:16.430Z,24.175790636014426
2022-10-28T16:27:19.500Z,24.13660574192918
2022-10-28T16:31:21.583Z,24.02868677684173
2022-10-28T16:34:19.608Z,23.826339063240447
2022-10-28T16:37:23.361Z,23.749254338652825
2022-10-28T16:41:17.901Z,23.55846992689849
2022-10-28T16:44:18.003Z,23.309872658913083
2022-10-28T16:47:20.479Z,23.202597045622042
2022-10-28T16:51:17.943Z,23.103029973115554
2022-10-28T16:54:17.158Z,22.98483436435381
2022-10-28T16:57:18.329Z,22.724676093978722
2022-10-28T17:01:19.883Z,22.68035290746484
2022-10-28T17:04:16.322Z,22.471584566486218
2022-10-28T17:07:17.963Z,22.43561222393773
2022-10-28T17:11:16.357Z,22.43111568212189
2022-10-28T17:14:17.197Z,22.139483303088127
2022-10-28T17:17:16.998Z,21.925577330205943
2022-10-28T17:21:16.651Z,21.923650251661094
2022-10-28T17:24:17.158Z,21.857487246445906
2022-10-28T17:27:16.716Z,21.73865090191284
2022-10-28T17:31:20.437Z,21.653859659334195
2022-10-28T17:34:17.490Z,21.560075498465448
2022-10-28T17:37:17.661Z,21.40976410034964
2022-10-28T17:41:16.482Z,21.400771118613193
2022-10-28T17:44:16.905Z,21.1907210130209
2022-10-28T17:47:16.732Z,20.987094922237155
2022-10-28T17:51:17.826Z,21.077666723226958
2022-10-28T17:54:17.186Z,20.962685516159762
2022-10-28T17:57:16.821Z,20.730796485931297
2022-10-28T18:01:17.802Z,20.7436435081102
2022-10-28T18:04:18.505Z,20.56956651224791
2022-10-28T18:07:18.059Z,20.57470531176987
2022-10-28T18:11:17.133Z,20.421183801582174
2022-10-28T18:14:16.535Z,20.284363595091055
2022-10-28T18:17:18.094Z,20.235545167597955
2022-10-28T18:21:17.715Z,20.158463493455564
2022-10-28T18:24:18.527Z,20.050549259668696
2022-10-28T18:27:17.043Z,19.999161574404933
2022-10-28T18:31:18.651Z,19.87197717853269
2022-10-28T18:34:17.658Z,19.824443662204793
2022-10-28T18:37:17.027Z,19.922080101078972
2022-10-28T18:41:17.897Z,19.79361112438819
2022-10-28T18:44:20.063Z,19.565579138745033
2022-10-28T18:47:17.542Z,19.52960794827168
2022-10-28T18:51:16.657Z,19.48271695353069
2022-10-28T18:54:17.217Z,19.31891983330943
2022-10-28T18:57:17.664Z,19.350394551106728
2022-10-28T19:01:17.812Z,19.20843723685839
2022-10-28T19:04:17.896Z,19.049136985784664
2022-10-28T19:07:15.928Z,19.0337208472979
2022-10-28T19:11:17.101Z,19.0337208472979
2022-10-28T19:14:16.668Z,18.90525312843829
2022-10-28T19:17:16.535Z,18.83588063588768
2022-10-28T19:21:17.239Z,18.93158899598202
2022-10-28T19:24:17.048Z,18.73696069195439
2022-10-28T19:27:18.488Z,18.753661454142367
2022-10-28T19:31:18.348Z,18.630332821222783
2022-10-28T19:34:16.737Z,18.559675867479474
2022-10-28T19:37:16.091Z,18.440843842091272
2022-10-28T19:41:19.248Z,18.413223447671136
2022-10-28T19:44:16.528Z,18.228231255282388
2022-10-28T19:47:16.596Z,18.147297289719518
2022-10-28T19:51:18.327Z,18.190333595752964
2022-10-28T19:54:16.101Z,18.108757331493052
2022-10-28T19:57:16.345Z,18.006626521366705
2022-10-28T20:01:19.038Z,17.97065594894957
2022-10-28T20:04:18.050Z,17.899357177913863
2022-10-28T20:07:16.446Z,17.85246702570148
2022-10-28T20:11:21.448Z,17.94560502301183
2022-10-28T20:14:16.732Z,17.81200020149272
2022-10-28T20:17:17.526Z,17.738774565470614
2022-10-28T20:21:18.534Z,17.694453814483495
2022-10-28T20:24:17.652Z,17.622512931438177
2022-10-28T20:27:17.315Z,17.532586907848962
2022-10-28T20:31:19.992Z,17.590396484210213
2022-10-28T20:34:16.259Z,17.494047210738426
2022-10-28T20:37:16.085Z,17.477989008440726
2022-10-28T20:41:16.936Z,17.550572105436366
2022-10-28T20:44:17.745Z,17.434953040298204
2022-10-28T20:47:17.898Z,17.44394562896923
2022-10-28T20:51:16.961Z,17.42082183133025
2022-10-28T20:54:17.345Z,17.356589091033676
2022-10-28T20:57:17.226Z,17.292356396211837
2022-10-28T21:01:20.842Z,17.275013576406582
2022-10-28T21:04:17.195Z,17.213992570111078
2022-10-28T21:07:16.851Z,17.244824231320308
2022-10-28T21:11:17.357Z,17.31355318047581
2022-10-28T21:14:17.123Z,17.23326235713903
2022-10-28T21:17:17.022Z,17.165175794624155
2022-10-28T21:21:16.783Z,17.081031151165462
2022-10-28T21:24:17.007Z,17.041206995972697
2022-10-28T21:27:16.908Z,16.944215981456
2022-10-28T21:31:18.477Z,17.00909075451791
2022-10-28T21:34:16.411Z,16.90824583024405
2022-10-28T21:37:16.906Z,16.87741428341287
2022-10-28T21:41:18.728Z,16.914026746441323
2022-10-28T21:44:17.498Z,16.836305570602782
2022-10-28T21:47:17.274Z,16.8215321314864
2022-10-28T21:51:18.253Z,16.883195197645637
2022-10-28T21:54:18.715Z,16.804831724947235
2022-10-28T21:57:16.866Z,16.81382425116326
2022-10-28T22:01:18.401Z,16.757299815469104
2022-10-28T22:04:16.611Z,16.734176192835093
2022-10-28T22:07:17.064Z,16.666732327148566
2022-10-28T22:11:18.533Z,16.73995709794108
2022-10-28T22:14:17.864Z,16.631404607988316
2022-10-28T22:17:17.459Z,16.592222971917728
2022-10-28T22:21:18.968Z,16.651316593459704
2022-10-28T22:24:16.775Z,16.597361546176035
2022-10-28T22:27:17.492Z,16.551756709803975
2022-10-28T22:31:19.785Z,16.581945824274225
2022-10-28T22:34:16.807Z,16.526063854337643
2022-10-28T22:37:16.991Z,16.533771710213568
2022-10-28T22:41:18.308Z,16.554968317248857
2022-10-28T22:44:16.839Z,16.474678165232852
2022-10-28T22:47:17.068Z,16.43228499363113
2022-10-28T22:51:17.319Z,16.50358261177316
2022-10-28T22:54:17.583Z,16.45605086011965
2022-10-28T22:57:17.046Z,16.474035844303216
2022-10-28T23:01:18.738Z,16.52413689047098
2022-10-28T23:04:16.966Z,16.44127748292167
2022-10-28T23:07:16.741Z,16.405949851550396
2022-10-28T23:11:18.335Z,16.43035803175626
2022-10-28T23:14:16.491Z,16.404665210668828
2022-10-28T23:17:16.071Z,16.36869527337003
2022-10-28T23:21:18.597Z,16.389249521508827
2022-10-28T23:24:17.211Z,16.33850622985856
2022-10-28T23:27:16.839Z,16.28904760581536
2022-10-28T23:31:16.031Z,16.316667353580215
2022-10-28T23:34:16.859Z,16.250508436939345
2022-10-28T23:37:16.703Z,16.201049860867442
2022-10-28T23:41:18.967Z,16.23188117785112
2022-10-28T23:44:17.519Z,16.196553628016044
2022-10-28T23:47:17.367Z,16.15159131175751
2022-10-28T23:51:16.887Z,16.13874493977637
2022-10-28T23:54:17.415Z,16.119475385215264
2022-10-28T23:57:17.649Z,16.091855697481606
